sensor_id;sensor_type;location;lat;lon;timestamp;P1;durP1;ratioP1;P2;durP2;ratioP2
32096;SDS011;18610;49.916;8.284;2023-03-03T00:00:00;15.40;;;8.27;;
32096;SDS011;18610;49.916;8.284;2023-03-03T00:02:29;21.15;;;9.27;;
32096;SDS011;18610;49.916;8.284;2023-03-03T00:04:56;15.90;;;8.50;;
32096;SDS011;18610;49.916;8.284;2023-03-03T00:07:22;15.23;;;7.78;;
32096;SDS011;18610;49.916;8.284;2023-03-03T00:09:49;22.33;;;9.30;;
32096;SDS011;18610;49.916;8.284;2023-03-03T00:12:18;23.00;;;9.75;;
32096;SDS011;18610;49.916;8.284;2023-03-03T00:14:48;16.67;;;8.60;;
32096;SDS011;18610;49.916;8.284;2023-03-03T00:17:17;18.27;;;9.23;;
32096;SDS011;18610;49.916;8.284;2023-03-03T00:19:48;20.13;;;9.05;;
32096;SDS011;18610;49.916;8.284;2023-03-03T00:22:20;19.05;;;8.95;;
32096;SDS011;18610;49.916;8.284;2023-03-03T00:24:53;15.55;;;9.07;;
32096;SDS011;18610;49.916;8.284;2023-03-03T00:27:22;20.98;;;10.23;;
32096;SDS011;18610;49.916;8.284;2023-03-03T00:29:54;19.50;;;9.77;;
32096;SDS011;18610;49.916;8.284;2023-03-03T00:32:23;21.17;;;10.55;;
32096;SDS011;18610;49.916;8.284;2023-03-03T00:34:54;19.70;;;10.98;;
32096;SDS011;18610;49.916;8.284;2023-03-03T00:37:30;18.85;;;10.30;;
32096;SDS011;18610;49.916;8.284;2023-03-03T00:39:58;22.98;;;11.30;;
32096;SDS011;18610;49.916;8.284;2023-03-03T00:42:43;22.20;;;9.95;;
32096;SDS011;18610;49.916;8.284;2023-03-03T00:45:17;22.52;;;10.93;;
32096;SDS011;18610;49.916;8.284;2023-03-03T00:47:49;20.98;;;10.65;;
32096;SDS011;18610;49.916;8.284;2023-03-03T00:50:25;19.50;;;9.48;;
32096;SDS011;18610;49.916;8.284;2023-03-03T00:52:59;21.98;;;10.63;;
32096;SDS011;18610;49.916;8.284;2023-03-03T00:55:31;24.85;;;10.88;;
32096;SDS011;18610;49.916;8.284;2023-03-03T00:57:59;22.77;;;10.90;;
32096;SDS011;18610;49.916;8.284;2023-03-03T01:00:26;21.05;;;10.98;;
32096;SDS011;18610;49.916;8.284;2023-03-03T01:02:52;25.00;;;11.50;;
32096;SDS011;18610;49.916;8.284;2023-03-03T01:05:19;19.80;;;10.35;;
32096;SDS011;18610;49.916;8.284;2023-03-03T01:07:48;22.40;;;11.25;;
32096;SDS011;18610;49.916;8.284;2023-03-03T01:10:14;23.40;;;11.65;;
32096;SDS011;18610;49.916;8.284;2023-03-03T01:12:41;27.30;;;12.52;;
32096;SDS011;18610;49.916;8.284;2023-03-03T01:15:09;25.88;;;12.52;;
32096;SDS011;18610;49.916;8.284;2023-03-03T01:17:38;22.30;;;11.30;;
32096;SDS011;18610;49.916;8.284;2023-03-03T01:20:05;27.10;;;12.10;;
32096;SDS011;18610;49.916;8.284;2023-03-03T01:22:33;26.02;;;11.82;;
32096;SDS011;18610;49.916;8.284;2023-03-03T01:25:01;25.83;;;13.13;;
32096;SDS011;18610;49.916;8.284;2023-03-03T01:27:28;26.92;;;12.90;;
32096;SDS011;18610;49.916;8.284;2023-03-03T01:29:55;26.80;;;12.77;;
32096;SDS011;18610;49.916;8.284;2023-03-03T01:32:22;27.02;;;12.52;;
32096;SDS011;18610;49.916;8.284;2023-03-03T01:34:49;22.27;;;11.85;;
32096;SDS011;18610;49.916;8.284;2023-03-03T01:37:16;23.48;;;12.85;;
32096;SDS011;18610;49.916;8.284;2023-03-03T01:39:46;24.50;;;12.95;;
32096;SDS011;18610;49.916;8.284;2023-03-03T01:42:15;29.13;;;13.95;;
32096;SDS011;18610;49.916;8.284;2023-03-03T01:44:41;28.33;;;12.82;;
32096;SDS011;18610;49.916;8.284;2023-03-03T01:47:09;23.73;;;12.52;;
32096;SDS011;18610;49.916;8.284;2023-03-03T01:49:39;26.02;;;13.07;;
32096;SDS011;18610;49.916;8.284;2023-03-03T01:52:09;27.20;;;13.98;;
32096;SDS011;18610;49.916;8.284;2023-03-03T01:54:40;29.77;;;13.27;;
32096;SDS011;18610;49.916;8.284;2023-03-03T01:57:11;28.83;;;13.57;;
32096;SDS011;18610;49.916;8.284;2023-03-03T01:59:43;29.75;;;13.32;;
32096;SDS011;18610;49.916;8.284;2023-03-03T02:02:13;23.45;;;13.40;;
32096;SDS011;18610;49.916;8.284;2023-03-03T02:04:39;26.00;;;13.20;;
32096;SDS011;18610;49.916;8.284;2023-03-03T02:07:07;30.77;;;13.05;;
32096;SDS011;18610;49.916;8.284;2023-03-03T02:09:37;27.30;;;13.38;;
32096;SDS011;18610;49.916;8.284;2023-03-03T02:12:11;24.33;;;12.38;;
32096;SDS011;18610;49.916;8.284;2023-03-03T02:14:43;25.25;;;12.27;;
32096;SDS011;18610;49.916;8.284;2023-03-03T02:17:09;22.83;;;12.27;;
32096;SDS011;18610;49.916;8.284;2023-03-03T02:19:39;23.95;;;13.00;;
32096;SDS011;18610;49.916;8.284;2023-03-03T02:22:15;26.83;;;12.57;;
32096;SDS011;18610;49.916;8.284;2023-03-03T02:24:47;26.20;;;13.95;;
32096;SDS011;18610;49.916;8.284;2023-03-03T02:27:18;26.65;;;14.00;;
32096;SDS011;18610;49.916;8.284;2023-03-03T02:29:44;28.13;;;14.77;;
32096;SDS011;18610;49.916;8.284;2023-03-03T02:32:11;32.97;;;14.32;;
32096;SDS011;18610;49.916;8.284;2023-03-03T02:34:48;28.13;;;14.00;;
32096;SDS011;18610;49.916;8.284;2023-03-03T02:37:16;40.35;;;15.65;;
32096;SDS011;18610;49.916;8.284;2023-03-03T02:39:43;33.90;;;17.23;;
32096;SDS011;18610;49.916;8.284;2023-03-03T02:42:12;37.28;;;16.13;;
32096;SDS011;18610;49.916;8.284;2023-03-03T02:44:46;32.25;;;15.73;;
32096;SDS011;18610;49.916;8.284;2023-03-03T02:47:13;33.65;;;16.52;;
32096;SDS011;18610;49.916;8.284;2023-03-03T02:49:40;31.83;;;15.93;;
32096;SDS011;18610;49.916;8.284;2023-03-03T02:52:08;34.38;;;17.08;;
32096;SDS011;18610;49.916;8.284;2023-03-03T02:54:38;33.83;;;15.30;;
32096;SDS011;18610;49.916;8.284;2023-03-03T02:57:05;34.17;;;16.00;;
32096;SDS011;18610;49.916;8.284;2023-03-03T02:59:33;37.30;;;17.67;;
32096;SDS011;18610;49.916;8.284;2023-03-03T03:02:01;40.95;;;16.73;;
32096;SDS011;18610;49.916;8.284;2023-03-03T03:04:27;36.58;;;17.60;;
32096;SDS011;18610;49.916;8.284;2023-03-03T03:06:54;35.58;;;17.98;;
32096;SDS011;18610;49.916;8.284;2023-03-03T03:09:22;35.05;;;17.50;;
32096;SDS011;18610;49.916;8.284;2023-03-03T03:11:49;34.53;;;18.10;;
32096;SDS011;18610;49.916;8.284;2023-03-03T03:14:16;43.13;;;19.08;;
32096;SDS011;18610;49.916;8.284;2023-03-03T03:16:43;39.88;;;18.02;;
32096;SDS011;18610;49.916;8.284;2023-03-03T03:19:11;36.58;;;19.10;;
32096;SDS011;18610;49.916;8.284;2023-03-03T03:21:38;41.03;;;19.00;;
32096;SDS011;18610;49.916;8.284;2023-03-03T03:24:05;43.70;;;19.80;;
32096;SDS011;18610;49.916;8.284;2023-03-03T03:26:32;38.55;;;19.77;;
32096;SDS011;18610;49.916;8.284;2023-03-03T03:28:59;36.38;;;18.45;;
32096;SDS011;18610;49.916;8.284;2023-03-03T03:31:25;33.60;;;17.73;;
32096;SDS011;18610;49.916;8.284;2023-03-03T03:33:52;41.88;;;19.10;;
32096;SDS011;18610;49.916;8.284;2023-03-03T03:36:20;34.90;;;18.60;;
32096;SDS011;18610;49.916;8.284;2023-03-03T03:38:47;37.90;;;19.25;;
32096;SDS011;18610;49.916;8.284;2023-03-03T03:41:14;37.03;;;19.05;;
32096;SDS011;18610;49.916;8.284;2023-03-03T03:43:41;38.88;;;17.35;;
32096;SDS011;18610;49.916;8.284;2023-03-03T03:46:08;43.30;;;19.90;;
32096;SDS011;18610;49.916;8.284;2023-03-03T03:48:35;40.00;;;18.52;;
32096;SDS011;18610;49.916;8.284;2023-03-03T03:51:02;49.63;;;18.45;;
32096;SDS011;18610;49.916;8.284;2023-03-03T03:53:30;41.85;;;19.23;;
32096;SDS011;18610;49.916;8.284;2023-03-03T03:55:57;40.97;;;19.85;;
32096;SDS011;18610;49.916;8.284;2023-03-03T03:58:23;41.17;;;20.38;;
32096;SDS011;18610;49.916;8.284;2023-03-03T04:00:50;42.88;;;18.88;;
32096;SDS011;18610;49.916;8.284;2023-03-03T04:03:17;50.70;;;21.60;;
32096;SDS011;18610;49.916;8.284;2023-03-03T04:05:44;50.90;;;20.23;;
32096;SDS011;18610;49.916;8.284;2023-03-03T04:08:10;42.05;;;20.52;;
32096;SDS011;18610;49.916;8.284;2023-03-03T04:10:39;37.53;;;20.70;;
32096;SDS011;18610;49.916;8.284;2023-03-03T04:13:05;38.20;;;20.08;;
32096;SDS011;18610;49.916;8.284;2023-03-03T04:15:32;38.75;;;18.30;;
32096;SDS011;18610;49.916;8.284;2023-03-03T04:17:59;39.10;;;19.52;;
32096;SDS011;18610;49.916;8.284;2023-03-03T04:20:26;40.28;;;20.15;;
32096;SDS011;18610;49.916;8.284;2023-03-03T04:22:53;39.45;;;20.77;;
32096;SDS011;18610;49.916;8.284;2023-03-03T04:25:21;40.60;;;20.17;;
32096;SDS011;18610;49.916;8.284;2023-03-03T04:27:49;44.35;;;19.55;;
32096;SDS011;18610;49.916;8.284;2023-03-03T04:30:17;40.38;;;19.52;;
32096;SDS011;18610;49.916;8.284;2023-03-03T04:32:43;38.88;;;18.33;;
32096;SDS011;18610;49.916;8.284;2023-03-03T04:35:11;39.38;;;19.67;;
32096;SDS011;18610;49.916;8.284;2023-03-03T04:37:38;41.95;;;17.83;;
32096;SDS011;18610;49.916;8.284;2023-03-03T04:40:05;42.42;;;19.42;;
32096;SDS011;18610;49.916;8.284;2023-03-03T04:42:33;39.60;;;18.30;;
32096;SDS011;18610;49.916;8.284;2023-03-03T04:45:01;40.60;;;19.17;;
32096;SDS011;18610;49.916;8.284;2023-03-03T04:47:28;37.08;;;19.63;;
32096;SDS011;18610;49.916;8.284;2023-03-03T04:49:56;46.13;;;20.50;;
32096;SDS011;18610;49.916;8.284;2023-03-03T04:52:23;36.58;;;17.40;;
32096;SDS011;18610;49.916;8.284;2023-03-03T04:54:49;37.65;;;18.67;;
32096;SDS011;18610;49.916;8.284;2023-03-03T04:57:16;32.92;;;16.90;;
32096;SDS011;18610;49.916;8.284;2023-03-03T04:59:43;42.25;;;19.60;;
32096;SDS011;18610;49.916;8.284;2023-03-03T05:02:11;31.75;;;17.35;;
32096;SDS011;18610;49.916;8.284;2023-03-03T05:04:38;39.60;;;17.67;;
32096;SDS011;18610;49.916;8.284;2023-03-03T05:07:05;32.38;;;16.98;;
32096;SDS011;18610;49.916;8.284;2023-03-03T05:09:32;33.03;;;16.75;;
32096;SDS011;18610;49.916;8.284;2023-03-03T05:11:59;36.33;;;18.92;;
32096;SDS011;18610;49.916;8.284;2023-03-03T05:14:26;48.42;;;22.80;;
32096;SDS011;18610;49.916;8.284;2023-03-03T05:16:53;52.90;;;23.98;;
32096;SDS011;18610;49.916;8.284;2023-03-03T05:19:21;56.22;;;24.67;;
32096;SDS011;18610;49.916;8.284;2023-03-03T05:21:48;52.03;;;25.63;;
32096;SDS011;18610;49.916;8.284;2023-03-03T05:24:14;48.53;;;22.92;;
32096;SDS011;18610;49.916;8.284;2023-03-03T05:26:41;46.67;;;22.38;;
32096;SDS011;18610;49.916;8.284;2023-03-03T05:29:08;56.53;;;24.27;;
32096;SDS011;18610;49.916;8.284;2023-03-03T05:31:35;57.08;;;23.73;;
32096;SDS011;18610;49.916;8.284;2023-03-03T05:34:02;47.22;;;23.00;;
32096;SDS011;18610;49.916;8.284;2023-03-03T05:36:30;47.72;;;23.70;;
32096;SDS011;18610;49.916;8.284;2023-03-03T05:38:56;50.42;;;22.33;;
32096;SDS011;18610;49.916;8.284;2023-03-03T05:41:23;48.85;;;23.42;;
32096;SDS011;18610;49.916;8.284;2023-03-03T05:43:50;53.03;;;24.33;;
32096;SDS011;18610;49.916;8.284;2023-03-03T05:46:17;54.63;;;26.65;;
32096;SDS011;18610;49.916;8.284;2023-03-03T05:48:44;50.80;;;25.10;;
32096;SDS011;18610;49.916;8.284;2023-03-03T05:51:10;55.40;;;26.80;;
32096;SDS011;18610;49.916;8.284;2023-03-03T05:53:38;61.20;;;30.35;;
32096;SDS011;18610;49.916;8.284;2023-03-03T05:56:05;57.85;;;28.05;;
32096;SDS011;18610;49.916;8.284;2023-03-03T05:58:32;61.88;;;28.80;;
32096;SDS011;18610;49.916;8.284;2023-03-03T06:00:59;55.67;;;28.15;;
32096;SDS011;18610;49.916;8.284;2023-03-03T06:03:26;66.28;;;30.38;;
32096;SDS011;18610;49.916;8.284;2023-03-03T06:05:52;63.53;;;28.45;;
32096;SDS011;18610;49.916;8.284;2023-03-03T06:08:19;63.70;;;29.58;;
32096;SDS011;18610;49.916;8.284;2023-03-03T06:10:47;61.83;;;31.42;;
32096;SDS011;18610;49.916;8.284;2023-03-03T06:13:14;68.47;;;30.55;;
32096;SDS011;18610;49.916;8.284;2023-03-03T06:15:41;64.65;;;30.77;;
32096;SDS011;18610;49.916;8.284;2023-03-03T06:18:07;58.78;;;28.42;;
32096;SDS011;18610;49.916;8.284;2023-03-03T06:20:35;65.40;;;29.70;;
32096;SDS011;18610;49.916;8.284;2023-03-03T06:23:02;68.78;;;29.58;;
32096;SDS011;18610;49.916;8.284;2023-03-03T06:25:29;61.60;;;30.17;;
32096;SDS011;18610;49.916;8.284;2023-03-03T06:27:57;69.93;;;31.20;;
32096;SDS011;18610;49.916;8.284;2023-03-03T06:30:24;70.38;;;33.33;;
32096;SDS011;18610;49.916;8.284;2023-03-03T06:32:52;70.03;;;31.23;;
32096;SDS011;18610;49.916;8.284;2023-03-03T06:35:19;70.30;;;30.90;;
32096;SDS011;18610;49.916;8.284;2023-03-03T06:37:46;64.78;;;30.83;;
32096;SDS011;18610;49.916;8.284;2023-03-03T06:40:14;62.80;;;31.77;;
32096;SDS011;18610;49.916;8.284;2023-03-03T06:42:41;76.05;;;33.05;;
32096;SDS011;18610;49.916;8.284;2023-03-03T06:45:10;73.97;;;36.05;;
32096;SDS011;18610;49.916;8.284;2023-03-03T06:47:37;76.63;;;34.35;;
32096;SDS011;18610;49.916;8.284;2023-03-03T06:50:04;75.65;;;35.33;;
32096;SDS011;18610;49.916;8.284;2023-03-03T06:52:32;72.80;;;35.22;;
32096;SDS011;18610;49.916;8.284;2023-03-03T06:54:59;74.53;;;36.30;;
32096;SDS011;18610;49.916;8.284;2023-03-03T06:57:35;79.13;;;37.00;;
32096;SDS011;18610;49.916;8.284;2023-03-03T07:00:11;71.80;;;35.83;;
32096;SDS011;18610;49.916;8.284;2023-03-03T07:02:44;79.17;;;36.77;;
32096;SDS011;18610;49.916;8.284;2023-03-03T07:05:12;76.78;;;37.03;;
32096;SDS011;18610;49.916;8.284;2023-03-03T07:07:40;85.75;;;36.17;;
32096;SDS011;18610;49.916;8.284;2023-03-03T07:10:12;78.20;;;36.20;;
32096;SDS011;18610;49.916;8.284;2023-03-03T07:12:45;81.03;;;37.67;;
32096;SDS011;18610;49.916;8.284;2023-03-03T07:15:13;75.82;;;36.22;;
32096;SDS011;18610;49.916;8.284;2023-03-03T07:17:45;73.13;;;37.75;;
32096;SDS011;18610;49.916;8.284;2023-03-03T07:20:17;75.22;;;36.67;;
32096;SDS011;18610;49.916;8.284;2023-03-03T07:22:46;84.00;;;36.88;;
32096;SDS011;18610;49.916;8.284;2023-03-03T07:25:17;88.47;;;37.00;;
32096;SDS011;18610;49.916;8.284;2023-03-03T07:27:46;75.07;;;37.67;;
32096;SDS011;18610;49.916;8.284;2023-03-03T07:30:19;76.18;;;35.92;;
32096;SDS011;18610;49.916;8.284;2023-03-03T07:32:51;75.45;;;37.83;;
32096;SDS011;18610;49.916;8.284;2023-03-03T07:35:35;84.38;;;39.92;;
32096;SDS011;18610;49.916;8.284;2023-03-03T07:38:09;84.22;;;40.08;;
32096;SDS011;18610;49.916;8.284;2023-03-03T07:40:44;82.53;;;41.30;;
32096;SDS011;18610;49.916;8.284;2023-03-03T07:43:16;82.03;;;39.13;;
32096;SDS011;18610;49.916;8.284;2023-03-03T07:46:04;79.25;;;37.40;;
32096;SDS011;18610;49.916;8.284;2023-03-03T07:48:47;80.30;;;38.42;;
32096;SDS011;18610;49.916;8.284;2023-03-03T07:51:18;82.30;;;39.00;;
32096;SDS011;18610;49.916;8.284;2023-03-03T07:53:49;79.43;;;39.58;;
32096;SDS011;18610;49.916;8.284;2023-03-03T07:56:18;83.35;;;40.15;;
32096;SDS011;18610;49.916;8.284;2023-03-03T07:58:52;76.18;;;39.58;;
32096;SDS011;18610;49.916;8.284;2023-03-03T08:01:26;73.10;;;36.33;;
32096;SDS011;18610;49.916;8.284;2023-03-03T08:04:00;79.30;;;38.67;;
32096;SDS011;18610;49.916;8.284;2023-03-03T08:09:30;73.22;;;35.50;;
32096;SDS011;18610;49.916;8.284;2023-03-03T08:12:15;72.72;;;36.63;;
32096;SDS011;18610;49.916;8.284;2023-03-03T08:14:52;72.57;;;37.67;;
32096;SDS011;18610;49.916;8.284;2023-03-03T08:17:22;68.35;;;36.42;;
32096;SDS011;18610;49.916;8.284;2023-03-03T08:19:50;72.28;;;37.15;;
32096;SDS011;18610;49.916;8.284;2023-03-03T08:22:23;72.15;;;35.97;;
32096;SDS011;18610;49.916;8.284;2023-03-03T08:24:54;65.28;;;33.55;;
32096;SDS011;18610;49.916;8.284;2023-03-03T08:27:21;70.20;;;36.22;;
32096;SDS011;18610;49.916;8.284;2023-03-03T08:29:48;72.28;;;37.22;;
32096;SDS011;18610;49.916;8.284;2023-03-03T08:32:15;75.43;;;36.72;;
32096;SDS011;18610;49.916;8.284;2023-03-03T08:34:43;69.18;;;36.55;;
32096;SDS011;18610;49.916;8.284;2023-03-03T08:37:09;70.75;;;35.97;;
32096;SDS011;18610;49.916;8.284;2023-03-03T08:39:36;66.75;;;34.85;;
32096;SDS011;18610;49.916;8.284;2023-03-03T08:42:03;61.60;;;32.67;;
32096;SDS011;18610;49.916;8.284;2023-03-03T08:44:30;74.20;;;36.80;;
32096;SDS011;18610;49.916;8.284;2023-03-03T08:46:56;68.47;;;36.20;;
32096;SDS011;18610;49.916;8.284;2023-03-03T08:49:23;70.03;;;35.40;;
32096;SDS011;18610;49.916;8.284;2023-03-03T08:51:51;67.55;;;35.53;;
32096;SDS011;18610;49.916;8.284;2023-03-03T08:54:18;66.20;;;34.28;;
32096;SDS011;18610;49.916;8.284;2023-03-03T08:56:45;75.82;;;36.00;;
32096;SDS011;18610;49.916;8.284;2023-03-03T08:59:12;68.60;;;34.33;;
32096;SDS011;18610;49.916;8.284;2023-03-03T09:01:38;68.45;;;35.50;;
32096;SDS011;18610;49.916;8.284;2023-03-03T09:04:07;65.72;;;35.30;;
32096;SDS011;18610;49.916;8.284;2023-03-03T09:06:34;64.57;;;34.88;;
32096;SDS011;18610;49.916;8.284;2023-03-03T09:09:02;63.72;;;32.90;;
32096;SDS011;18610;49.916;8.284;2023-03-03T09:11:29;61.03;;;32.45;;
32096;SDS011;18610;49.916;8.284;2023-03-03T09:13:58;65.53;;;35.00;;
32096;SDS011;18610;49.916;8.284;2023-03-03T09:16:33;68.72;;;35.33;;
32096;SDS011;18610;49.916;8.284;2023-03-03T09:19:06;66.20;;;34.67;;
32096;SDS011;18610;49.916;8.284;2023-03-03T09:21:43;57.80;;;30.50;;
32096;SDS011;18610;49.916;8.284;2023-03-03T09:24:14;67.38;;;33.20;;
32096;SDS011;18610;49.916;8.284;2023-03-03T09:26:47;62.25;;;31.52;;
32096;SDS011;18610;49.916;8.284;2023-03-03T09:29:17;56.97;;;30.27;;
32096;SDS011;18610;49.916;8.284;2023-03-03T09:31:50;57.25;;;32.53;;
32096;SDS011;18610;49.916;8.284;2023-03-03T09:34:18;61.20;;;32.50;;
32096;SDS011;18610;49.916;8.284;2023-03-03T09:36:47;54.30;;;29.70;;
32096;SDS011;18610;49.916;8.284;2023-03-03T09:39:17;61.38;;;32.42;;
32096;SDS011;18610;49.916;8.284;2023-03-03T09:41:51;53.20;;;28.83;;
32096;SDS011;18610;49.916;8.284;2023-03-03T09:44:49;59.75;;;31.45;;
32096;SDS011;18610;49.916;8.284;2023-03-03T09:47:38;57.33;;;30.85;;
32096;SDS011;18610;49.916;8.284;2023-03-03T09:50:17;48.15;;;27.00;;
32096;SDS011;18610;49.916;8.284;2023-03-03T09:52:51;49.45;;;27.88;;
32096;SDS011;18610;49.916;8.284;2023-03-03T09:55:31;53.30;;;28.77;;
32096;SDS011;18610;49.916;8.284;2023-03-03T09:58:12;50.20;;;27.95;;
32096;SDS011;18610;49.916;8.284;2023-03-03T10:00:56;49.67;;;29.33;;
32096;SDS011;18610;49.916;8.284;2023-03-03T10:03:44;55.50;;;30.50;;
32096;SDS011;18610;49.916;8.284;2023-03-03T10:06:32;55.63;;;28.48;;
32096;SDS011;18610;49.916;8.284;2023-03-03T10:09:07;53.60;;;28.75;;
32096;SDS011;18610;49.916;8.284;2023-03-03T10:11:51;47.85;;;26.20;;
32096;SDS011;18610;49.916;8.284;2023-03-03T10:14:28;52.00;;;29.05;;
32096;SDS011;18610;49.916;8.284;2023-03-03T10:17:12;53.17;;;27.02;;
32096;SDS011;18610;49.916;8.284;2023-03-03T10:19:48;50.08;;;29.30;;
32096;SDS011;18610;49.916;8.284;2023-03-03T10:22:25;53.40;;;28.33;;
32096;SDS011;18610;49.916;8.284;2023-03-03T10:25:01;50.22;;;28.30;;
32096;SDS011;18610;49.916;8.284;2023-03-03T10:27:39;47.15;;;29.48;;
32096;SDS011;18610;49.916;8.284;2023-03-03T10:30:19;44.50;;;25.58;;
32096;SDS011;18610;49.916;8.284;2023-03-03T10:32:53;42.33;;;25.92;;
32096;SDS011;18610;49.916;8.284;2023-03-03T10:35:32;56.20;;;29.95;;
32096;SDS011;18610;49.916;8.284;2023-03-03T10:38:16;50.97;;;29.55;;
32096;SDS011;18610;49.916;8.284;2023-03-03T10:40:52;48.33;;;27.92;;
32096;SDS011;18610;49.916;8.284;2023-03-03T10:43:27;51.83;;;28.65;;
32096;SDS011;18610;49.916;8.284;2023-03-03T10:46:08;47.55;;;27.75;;
32096;SDS011;18610;49.916;8.284;2023-03-03T10:48:53;58.53;;;28.50;;
32096;SDS011;18610;49.916;8.284;2023-03-03T10:51:31;56.88;;;29.90;;
32096;SDS011;18610;49.916;8.284;2023-03-03T10:54:07;47.15;;;28.27;;
32096;SDS011;18610;49.916;8.284;2023-03-03T10:56:45;49.78;;;30.25;;
32096;SDS011;18610;49.916;8.284;2023-03-03T10:59:26;52.97;;;29.50;;
32096;SDS011;18610;49.916;8.284;2023-03-03T11:02:14;50.05;;;27.77;;
32096;SDS011;18610;49.916;8.284;2023-03-03T11:07:47;48.90;;;29.13;;
32096;SDS011;18610;49.916;8.284;2023-03-03T11:10:19;50.55;;;27.75;;
32096;SDS011;18610;49.916;8.284;2023-03-03T11:12:53;41.72;;;26.77;;
32096;SDS011;18610;49.916;8.284;2023-03-03T11:15:37;45.22;;;27.67;;
32096;SDS011;18610;49.916;8.284;2023-03-03T11:18:20;48.05;;;27.55;;
32096;SDS011;18610;49.916;8.284;2023-03-03T11:20:58;51.08;;;29.27;;
32096;SDS011;18610;49.916;8.284;2023-03-03T11:23:38;46.58;;;27.75;;
32096;SDS011;18610;49.916;8.284;2023-03-03T11:26:14;47.85;;;28.20;;
32096;SDS011;18610;49.916;8.284;2023-03-03T11:28:55;51.22;;;29.85;;
32096;SDS011;18610;49.916;8.284;2023-03-03T11:31:39;52.58;;;31.05;;
32096;SDS011;18610;49.916;8.284;2023-03-03T11:34:14;47.33;;;26.77;;
32096;SDS011;18610;49.916;8.284;2023-03-03T11:36:54;44.45;;;26.35;;
32096;SDS011;18610;49.916;8.284;2023-03-03T11:39:26;42.35;;;25.27;;
32096;SDS011;18610;49.916;8.284;2023-03-03T11:41:56;48.35;;;26.45;;
32096;SDS011;18610;49.916;8.284;2023-03-03T11:44:30;45.13;;;28.70;;
32096;SDS011;18610;49.916;8.284;2023-03-03T11:47:03;47.47;;;25.50;;
32096;SDS011;18610;49.916;8.284;2023-03-03T11:49:38;45.25;;;27.02;;
32096;SDS011;18610;49.916;8.284;2023-03-03T11:52:13;45.42;;;28.08;;
32096;SDS011;18610;49.916;8.284;2023-03-03T11:54:48;42.70;;;26.02;;
32096;SDS011;18610;49.916;8.284;2023-03-03T11:59:48;42.38;;;26.60;;
32096;SDS011;18610;49.916;8.284;2023-03-03T12:02:38;49.13;;;26.88;;
32096;SDS011;18610;49.916;8.284;2023-03-03T12:05:12;46.60;;;28.70;;
32096;SDS011;18610;49.916;8.284;2023-03-03T12:07:49;37.88;;;24.67;;
32096;SDS011;18610;49.916;8.284;2023-03-03T12:10:22;44.28;;;25.77;;
32096;SDS011;18610;49.916;8.284;2023-03-03T12:12:54;41.63;;;22.55;;
32096;SDS011;18610;49.916;8.284;2023-03-03T12:15:30;41.47;;;25.50;;
32096;SDS011;18610;49.916;8.284;2023-03-03T12:21:16;38.03;;;23.73;;
32096;SDS011;18610;49.916;8.284;2023-03-03T12:23:55;36.83;;;23.08;;
32096;SDS011;18610;49.916;8.284;2023-03-03T12:26:34;43.08;;;24.27;;
32096;SDS011;18610;49.916;8.284;2023-03-03T12:29:11;47.92;;;25.13;;
32096;SDS011;18610;49.916;8.284;2023-03-03T12:31:46;38.75;;;21.38;;
32096;SDS011;18610;49.916;8.284;2023-03-03T12:34:21;32.25;;;21.90;;
32096;SDS011;18610;49.916;8.284;2023-03-03T12:37:04;34.72;;;21.75;;
32096;SDS011;18610;49.916;8.284;2023-03-03T12:42:20;36.33;;;21.40;;
32096;SDS011;18610;49.916;8.284;2023-03-03T12:44:57;34.53;;;20.35;;
32096;SDS011;18610;49.916;8.284;2023-03-03T12:47:32;31.65;;;21.30;;
32096;SDS011;18610;49.916;8.284;2023-03-03T12:50:10;36.88;;;19.70;;
32096;SDS011;18610;49.916;8.284;2023-03-03T12:52:51;36.60;;;20.77;;
32096;SDS011;18610;49.916;8.284;2023-03-03T12:55:29;30.92;;;20.08;;
32096;SDS011;18610;49.916;8.284;2023-03-03T12:58:05;32.00;;;20.55;;
32096;SDS011;18610;49.916;8.284;2023-03-03T13:00:39;33.83;;;20.80;;
32096;SDS011;18610;49.916;8.284;2023-03-03T13:03:15;34.92;;;22.13;;
32096;SDS011;18610;49.916;8.284;2023-03-03T13:05:54;36.03;;;21.77;;
32096;SDS011;18610;49.916;8.284;2023-03-03T13:11:22;34.28;;;20.60;;
32096;SDS011;18610;49.916;8.284;2023-03-03T13:14:02;33.35;;;20.45;;
32096;SDS011;18610;49.916;8.284;2023-03-03T13:16:40;32.22;;;19.73;;
32096;SDS011;18610;49.916;8.284;2023-03-03T13:19:11;31.45;;;20.85;;
32096;SDS011;18610;49.916;8.284;2023-03-03T13:21:46;31.98;;;18.95;;
32096;SDS011;18610;49.916;8.284;2023-03-03T13:24:16;33.38;;;20.40;;
32096;SDS011;18610;49.916;8.284;2023-03-03T13:26:48;34.33;;;20.33;;
32096;SDS011;18610;49.916;8.284;2023-03-03T13:29:19;31.75;;;20.52;;
32096;SDS011;18610;49.916;8.284;2023-03-03T13:31:50;36.92;;;18.88;;
32096;SDS011;18610;49.916;8.284;2023-03-03T13:34:23;29.77;;;18.75;;
32096;SDS011;18610;49.916;8.284;2023-03-03T13:37:03;29.35;;;18.38;;
32096;SDS011;18610;49.916;8.284;2023-03-03T13:39:37;32.42;;;19.67;;
32096;SDS011;18610;49.916;8.284;2023-03-03T13:42:09;33.25;;;19.88;;
32096;SDS011;18610;49.916;8.284;2023-03-03T13:44:47;32.10;;;19.80;;
32096;SDS011;18610;49.916;8.284;2023-03-03T13:47:16;30.02;;;20.23;;
32096;SDS011;18610;49.916;8.284;2023-03-03T13:49:59;31.52;;;18.08;;
32096;SDS011;18610;49.916;8.284;2023-03-03T13:52:36;30.45;;;18.85;;
32096;SDS011;18610;49.916;8.284;2023-03-03T13:55:16;29.83;;;17.52;;
32096;SDS011;18610;49.916;8.284;2023-03-03T13:57:57;28.13;;;19.25;;
32096;SDS011;18610;49.916;8.284;2023-03-03T14:00:33;30.90;;;17.77;;
32096;SDS011;18610;49.916;8.284;2023-03-03T14:03:19;28.23;;;17.42;;
32096;SDS011;18610;49.916;8.284;2023-03-03T14:06:04;30.63;;;17.13;;
32096;SDS011;18610;49.916;8.284;2023-03-03T14:11:19;30.00;;;18.33;;
32096;SDS011;18610;49.916;8.284;2023-03-03T14:13:51;29.73;;;18.38;;
32096;SDS011;18610;49.916;8.284;2023-03-03T14:16:30;29.98;;;17.05;;
32096;SDS011;18610;49.916;8.284;2023-03-03T14:19:06;30.20;;;16.92;;
32096;SDS011;18610;49.916;8.284;2023-03-03T14:21:39;22.77;;;15.60;;
32096;SDS011;18610;49.916;8.284;2023-03-03T14:24:14;25.15;;;16.23;;
32096;SDS011;18610;49.916;8.284;2023-03-03T14:26:47;24.25;;;15.23;;
32096;SDS011;18610;49.916;8.284;2023-03-03T14:29:18;29.73;;;16.13;;
32096;SDS011;18610;49.916;8.284;2023-03-03T14:31:47;27.50;;;15.75;;
32096;SDS011;18610;49.916;8.284;2023-03-03T14:34:24;22.65;;;15.82;;
32096;SDS011;18610;49.916;8.284;2023-03-03T14:37:00;25.85;;;16.25;;
32096;SDS011;18610;49.916;8.284;2023-03-03T14:39:46;28.15;;;16.13;;
32096;SDS011;18610;49.916;8.284;2023-03-03T14:42:29;21.83;;;14.60;;
32096;SDS011;18610;49.916;8.284;2023-03-03T14:44:58;28.13;;;16.45;;
32096;SDS011;18610;49.916;8.284;2023-03-03T14:47:28;26.60;;;16.10;;
32096;SDS011;18610;49.916;8.284;2023-03-03T14:49:56;22.52;;;15.50;;
32096;SDS011;18610;49.916;8.284;2023-03-03T14:52:25;22.77;;;16.15;;
32096;SDS011;18610;49.916;8.284;2023-03-03T14:54:53;24.35;;;15.95;;
32096;SDS011;18610;49.916;8.284;2023-03-03T14:57:35;24.40;;;15.63;;
32096;SDS011;18610;49.916;8.284;2023-03-03T15:00:28;23.90;;;14.65;;
32096;SDS011;18610;49.916;8.284;2023-03-03T15:03:01;31.92;;;16.02;;
32096;SDS011;18610;49.916;8.284;2023-03-03T15:05:31;27.00;;;15.32;;